Flight EZE41Y

  • Submitted By: Dave Hardy
  • Departure Airport: London Stansted (EGSS)
  • Arrival Airport: Manchester (EGCC)
  • Aircraft: JS41 (G-MAJA)
  • Flight Time: 00.54
  • Date Submitted: 02/09/2009
  • Status: Accepted
Flight Details
Gross Revenue:
(20 load / £ 0.00 per unit
£ 0.00
Fuel Cost:
(1122 fuel used @ 0 / unit)
£ 0.00

Flight Details

  • VATAWARE Link: -

Additional Log Information:

View Log

[2009/02/09 08:25:00]
Flight IATA:EZE41Y
Pilot Number:EZE0001
Company ICAO:EZE
Aircraft Type:JS41
PAX:20
Aircraft Registration:JS41
Departing Airport: EGSS
Destination Airport: EGCC
Online: VATSIM
Route:BUZAD T420 TNT
Flight Level:18000
08:25 Zero fuel Weight: 17980 Lbs, Fuel Weight: 5798 Lbs
08:25 VATSIM:EGSS 091350Z 12007KT 4000 -RADZ SCT001 BKN002 03/03 Q0995
08:25 VATSIM:EGCC 091350Z VRB03KT 9999 FEW014 05/03 Q0994
08:37 Parking Brakes off
08:37 Com1 Freq=123.80
08:46 VR= 141 Knots
08:46 V2= 146 Knots
08:46 Take-off
08:46 Take off Weight: 23701 Lbs
08:46 Wind: 114 @ 008 Knots Heading: 046
08:46 POS N51 53 25 E000 14 35
08:46 N11 36 N12 20
08:46 Gear Up: 148 Knots
08:46 Flaps: at 148 Knots
08:47 Com1 Freq=122.80
08:54 Flaps: at 167 Knots
08:56 TOC
08:56 Fuel Weight: 5348 Lb
09:01 Wind:262@041 Knots Heading: 321 Ground Speed: 293 Knots Altitude 18008 ft
09:08 Com1 Freq=121.80
09:08 Com1 Freq=119.80
09:08 Com1 Freq=118.80
09:08 Com1 Freq=118.72
09:08 Com1 Freq=118.52
09:08 Com1 Freq=118.55
09:08 Com1 Freq=118.57
09:09 TOD
09:09 Fuel Weight: 4979 Lb
09:16 Wind:121@002 Knots Heading: 309 Ground Speed: 216 Knots Altitude 7001 ft
09:22 Flaps: at 230 Knots
09:22 Gear Down: 229 Knots
09:24 Flaps: at 201 Knots
09:25 Flaps: at 163 Knots
09:26 TouchDown:Rate -296 ft/min Speed: 123 Knots
09:26 VATSIM:EGCC 091450Z 15003KT 9000 4000NW -RADZ BKN014 04/02 Q0993 TEMPO 4000 -RASN BKN009
09:26 Land
09:26 Wind:176@002 Knots
09:26 Heading: 229
09:26 Flight Duration: 00:40
09:26 Landing Weight: 22677 Lbs
09:26 POS N53 21 11 W002 16 33
09:31 Parking brakes on
09:31 Block to Block Duration: 00:54
09:31 Final Fuel: 4675 Lbls
09:31 Spent Fuel: 1122 Lbls
09:31 Flight Length: 155 NM
09:31 TOD Land Length: 65 NM

Route Map